Time;durP1;ratioP1;P1;durP2;ratioP2;P2;SDS_P1;SDS_P2;PMS_P1;PMS_P2;Temp;Humidity;BMP_temperature;BMP_pressure;BME280_temperature;BME280_humidity;BME280_pressure;Samples;Min_cycle;Max_cycle;Signal;HPM_P1;HPM_P2
2022/03/04 00:01:25;;;;;;;51.07;27.90;;;3.40;99.90;;;;;;5036684;28;20243;-77
2022/03/04 00:04:14;;;;;;;55.87;28.27;;;3.30;99.90;;;;;;5038747;28;20221;-76
2022/03/04 00:07:02;;;;;;;50.00;26.87;;;3.20;99.90;;;;;;5021898;28;20228;-76
2022/03/04 00:09:51;;;;;;;47.83;26.63;;;3.30;99.90;;;;;;5020866;28;20309;-76
2022/03/04 00:12:40;;;;;;;50.13;26.67;;;3.40;99.90;;;;;;5024788;28;20231;-77
2022/03/04 00:15:30;;;;;;;51.87;27.03;;;3.40;99.90;;;;;;5019040;28;20260;-76
2022/03/04 00:18:19;;;;;;;51.57;26.13;;;3.40;99.90;;;;;;5038152;28;20209;-76
2022/03/04 00:21:09;;;;;;;54.60;27.13;;;3.40;99.90;;;;;;5032025;28;20217;-77
2022/03/04 00:23:58;;;;;;;53.60;26.63;;;3.40;99.90;;;;;;5035712;28;20225;-78
2022/03/04 00:26:47;;;;;;;50.43;26.80;;;3.30;99.90;;;;;;5033846;28;20226;-78
2022/03/04 00:29:36;;;;;;;52.27;27.27;;;3.30;99.90;;;;;;5035778;28;20287;-77
2022/03/04 00:32:26;;;;;;;51.50;26.70;;;3.20;99.90;;;;;;5035582;28;20208;-77
2022/03/04 00:35:18;;;;;;;52.10;28.83;;;3.30;99.90;;;;;;5035936;28;20736;-76
2022/03/04 00:38:06;;;;;;;53.27;28.00;;;3.30;99.90;;;;;;5037530;28;20230;-76
2022/03/04 00:40:55;;;;;;;49.47;27.07;;;3.40;99.90;;;;;;5017467;28;20240;-76
2022/03/04 00:43:44;;;;;;;49.93;27.43;;;3.30;99.90;;;;;;5011118;28;20247;-77
2022/03/04 00:46:33;;;;;;;49.10;27.10;;;3.30;99.90;;;;;;5021587;28;20312;-76
2022/03/04 00:49:23;;;;;;;51.10;27.27;;;3.30;99.90;;;;;;5019487;28;20294;-77
2022/03/04 00:52:12;;;;;;;46.50;25.83;;;3.20;99.90;;;;;;5025053;28;20228;-78
2022/03/04 00:55:00;;;;;;;52.90;27.10;;;3.30;99.90;;;;;;5019827;28;20221;-77
2022/03/04 00:57:49;;;;;;;53.23;26.17;;;3.30;99.90;;;;;;5033415;28;20315;-76
2022/03/04 01:00:37;;;;;;;44.70;25.73;;;3.20;99.90;;;;;;5035976;28;20242;-77
2022/03/04 01:03:26;;;;;;;47.03;24.63;;;3.20;99.90;;;;;;5035310;28;20294;-77
2022/03/04 01:06:19;;;;;;;46.27;25.53;;;3.30;99.90;;;;;;5036645;28;20236;-75
2022/03/04 01:09:12;;;;;;;49.17;25.80;;;3.40;99.90;;;;;;5039477;28;20221;-75
2022/03/04 01:12:00;;;;;;;44.20;25.87;;;3.30;99.90;;;;;;5037577;28;20224;-75
2022/03/04 01:14:51;;;;;;;48.60;25.20;;;3.20;99.90;;;;;;5034728;28;20226;-75
2022/03/04 01:17:40;;;;;;;47.97;24.87;;;3.20;99.90;;;;;;5036610;28;20220;-75
2022/03/04 01:20:30;;;;;;;44.10;24.83;;;3.20;99.90;;;;;;5037959;28;20592;-77
2022/03/04 01:23:24;;;;;;;43.63;24.67;;;3.20;99.90;;;;;;5034500;28;20225;-77
2022/03/04 01:26:13;;;;;;;47.87;24.00;;;3.20;99.90;;;;;;5037785;28;20247;-76
2022/03/04 01:29:01;;;;;;;43.53;23.50;;;3.20;99.90;;;;;;5034648;28;20223;-74
2022/03/04 01:31:50;;;;;;;46.70;24.53;;;3.20;99.90;;;;;;5035334;28;20434;-74
2022/03/04 01:34:39;;;;;;;48.97;24.80;;;3.30;99.90;;;;;;5039334;28;20256;-75
2022/03/04 01:37:28;;;;;;;46.60;25.03;;;3.30;99.90;;;;;;5031985;28;20604;-74
2022/03/04 01:40:18;;;;;;;41.07;23.40;;;3.30;99.90;;;;;;5039733;28;20228;-75
2022/03/04 01:43:07;;;;;;;44.00;24.20;;;3.30;99.90;;;;;;5053417;28;20579;-77
2022/03/04 01:45:56;;;;;;;40.60;22.57;;;3.20;99.90;;;;;;5042268;28;20228;-74
2022/03/04 01:48:47;;;;;;;43.07;23.23;;;3.30;99.90;;;;;;5038545;28;20229;-75
2022/03/04 01:51:35;;;;;;;44.13;24.40;;;3.40;99.90;;;;;;5040743;28;20639;-75
2022/03/04 01:54:24;;;;;;;42.07;23.40;;;3.40;99.90;;;;;;5037587;28;20232;-77
2022/03/04 01:57:14;;;;;;;42.93;22.83;;;3.50;99.90;;;;;;5042633;28;20228;-77
2022/03/04 02:00:06;;;;;;;43.97;23.90;;;3.50;99.90;;;;;;5030659;28;20234;-76
2022/03/04 02:03:00;;;;;;;43.47;22.87;;;3.50;99.90;;;;;;5037702;28;20214;-75
2022/03/04 02:05:49;;;;;;;43.70;22.60;;;3.60;99.90;;;;;;5016966;28;20972;-75
2022/03/04 02:08:38;;;;;;;43.20;22.63;;;3.60;99.90;;;;;;5025271;28;20822;-76
2022/03/04 02:11:27;;;;;;;45.17;22.27;;;3.60;99.90;;;;;;5039612;28;20587;-75
2022/03/04 02:14:20;;;;;;;41.97;22.10;;;3.60;99.90;;;;;;5035566;28;20217;-75
2022/03/04 02:17:09;;;;;;;42.50;23.27;;;3.60;99.90;;;;;;5041268;28;20243;-76
2022/03/04 02:19:59;;;;;;;44.70;23.90;;;3.50;99.90;;;;;;5040519;28;20710;-77
2022/03/04 02:22:49;;;;;;;38.10;22.77;;;3.60;99.90;;;;;;5040245;28;20568;-77
2022/03/04 02:25:38;;;;;;;44.53;23.60;;;3.60;99.90;;;;;;5040223;28;20248;-76
2022/03/04 02:28:26;;;;;;;43.33;23.60;;;3.60;99.90;;;;;;5038610;28;20214;-76
2022/03/04 02:31:16;;;;;;;43.27;23.40;;;3.60;99.90;;;;;;5038382;28;20218;-76
2022/03/04 02:34:05;;;;;;;42.43;24.80;;;3.60;99.90;;;;;;5037328;28;20316;-76
2022/03/04 02:36:54;;;;;;;48.87;24.67;;;3.40;99.90;;;;;;5038192;28;20237;-77
2022/03/04 02:39:45;;;;;;;43.27;24.43;;;3.40;99.90;;;;;;5036281;28;20229;-77
2022/03/04 02:42:33;;;;;;;49.33;25.67;;;3.20;99.90;;;;;;5036331;28;20219;-77
2022/03/04 02:45:22;;;;;;;51.50;25.40;;;3.20;99.90;;;;;;5033351;28;20218;-77
2022/03/04 02:48:11;;;;;;;46.47;25.27;;;3.10;99.90;;;;;;5038527;28;20253;-77
2022/03/04 02:50:59;;;;;;;49.77;24.67;;;3.20;99.90;;;;;;5040726;28;20311;-76
2022/03/04 02:53:48;;;;;;;54.63;27.03;;;3.20;99.90;;;;;;5038256;28;20232;-76
2022/03/04 02:56:38;;;;;;;49.97;26.17;;;3.20;99.90;;;;;;5037714;28;20209;-76
2022/03/04 02:59:27;;;;;;;49.47;27.03;;;3.20;99.90;;;;;;5038130;28;20239;-76
2022/03/04 03:02:16;;;;;;;50.63;27.10;;;3.20;99.90;;;;;;5021364;28;20560;-76
2022/03/04 03:05:05;;;;;;;49.47;26.43;;;3.30;99.90;;;;;;5021713;28;20397;-76
2022/03/04 03:07:54;;;;;;;47.47;26.73;;;3.40;99.90;;;;;;5030131;28;20827;-75
2022/03/04 03:10:43;;;;;;;49.97;26.73;;;3.30;99.90;;;;;;5032518;28;20737;-76
2022/03/04 03:13:33;;;;;;;53.07;26.60;;;3.30;99.90;;;;;;5038856;28;20320;-74
2022/03/04 03:16:22;;;;;;;47.47;26.70;;;3.30;99.90;;;;;;5039150;28;20344;-74
2022/03/04 03:19:11;;;;;;;54.00;27.67;;;3.30;99.90;;;;;;5036402;28;20234;-75
2022/03/04 03:21:59;;;;;;;49.87;27.13;;;3.40;99.90;;;;;;5030811;28;20224;-76
2022/03/04 03:24:48;;;;;;;54.63;27.57;;;3.40;99.90;;;;;;5035392;28;20215;-77
2022/03/04 03:27:37;;;;;;;53.53;26.90;;;3.50;99.90;;;;;;5036277;28;20228;-78
2022/03/04 03:30:27;;;;;;;50.73;26.23;;;3.50;99.90;;;;;;5038919;28;20215;-77
2022/03/04 03:33:16;;;;;;;48.97;25.83;;;3.50;99.90;;;;;;5033589;28;20212;-78
2022/03/04 03:36:05;;;;;;;49.30;25.47;;;3.50;99.90;;;;;;5040991;28;20287;-78
2022/03/04 03:38:54;;;;;;;49.17;26.03;;;3.50;99.90;;;;;;5040569;28;20236;-78
2022/03/04 03:41:42;;;;;;;47.50;25.23;;;3.50;99.90;;;;;;5038110;28;20221;-78
2022/03/04 03:44:31;;;;;;;52.07;25.20;;;3.50;99.90;;;;;;5050826;28;20231;-76
2022/03/04 03:47:25;;;;;;;49.20;25.77;;;3.60;99.90;;;;;;5035332;28;20217;-76
2022/03/04 03:50:14;;;;;;;46.30;22.83;;;3.70;99.90;;;;;;5031660;28;20213;-74
2022/03/04 03:53:02;;;;;;;44.70;22.23;;;3.60;99.90;;;;;;5035477;28;20703;-74
2022/03/04 03:55:54;;;;;;;43.40;20.73;;;3.50;99.90;;;;;;5036916;28;20277;-75
2022/03/04 03:58:42;;;;;;;40.57;21.67;;;3.50;99.90;;;;;;5026569;28;20296;-77
2022/03/04 04:01:36;;;;;;;40.93;22.73;;;3.50;99.90;;;;;;5034675;28;20221;-77
2022/03/04 04:04:33;;;;;;;42.47;21.47;;;3.50;99.90;;;;;;5035778;28;20267;-76
2022/03/04 04:07:22;;;;;;;38.10;21.30;;;3.60;99.90;;;;;;5038047;28;20743;-78
2022/03/04 04:10:11;;;;;;;40.93;21.83;;;3.50;99.90;;;;;;5037344;28;20221;-77
2022/03/04 04:12:59;;;;;;;41.97;21.23;;;3.60;99.90;;;;;;5019546;28;20227;-77
2022/03/04 04:15:48;;;;;;;41.30;20.87;;;3.60;99.90;;;;;;5035007;28;20779;-77
2022/03/04 04:18:37;;;;;;;41.80;21.10;;;3.60;99.90;;;;;;5023084;28;20217;-76
2022/03/04 04:21:28;;;;;;;36.30;19.43;;;3.60;99.90;;;;;;5025016;28;20209;-76
2022/03/04 04:24:16;;;;;;;37.73;19.07;;;3.70;99.90;;;;;;5036170;28;20216;-77
2022/03/04 04:27:05;;;;;;;36.90;18.90;;;3.60;99.90;;;;;;5022510;28;20232;-78
2022/03/04 04:29:53;;;;;;;32.87;18.43;;;3.60;99.90;;;;;;5037521;28;20222;-76
2022/03/04 04:32:42;;;;;;;34.57;17.43;;;3.50;99.90;;;;;;5021511;28;20252;-75
2022/03/04 04:35:31;;;;;;;34.40;17.20;;;3.60;99.90;;;;;;5029015;28;20357;-75
2022/03/04 04:38:21;;;;;;;37.20;17.63;;;3.50;99.90;;;;;;5023874;28;20221;-76
2022/03/04 04:41:10;;;;;;;29.63;17.47;;;3.70;99.90;;;;;;5024948;28;20248;-77
2022/03/04 04:43:58;;;;;;;28.77;16.47;;;3.70;99.90;;;;;;5026303;28;20226;-76
2022/03/04 04:46:47;;;;;;;34.60;16.23;;;3.40;99.90;;;;;;5035106;28;20225;-76
2022/03/04 04:49:37;;;;;;;32.23;15.50;;;3.50;99.90;;;;;;5013462;28;20612;-76
2022/03/04 04:52:26;;;;;;;29.70;15.27;;;3.60;99.90;;;;;;5024140;28;20236;-78
2022/03/04 04:55:15;;;;;;;31.80;15.67;;;3.50;99.90;;;;;;5020640;28;20221;-77
2022/03/04 04:58:04;;;;;;;30.80;15.50;;;3.40;99.90;;;;;;5010931;28;20223;-77
2022/03/04 05:00:54;;;;;;;34.07;15.97;;;3.40;99.90;;;;;;5014721;28;20225;-77
2022/03/04 05:03:44;;;;;;;31.10;15.13;;;3.50;99.90;;;;;;5025659;28;20228;-81
2022/03/04 05:06:32;;;;;;;32.70;14.57;;;3.50;99.90;;;;;;5020453;28;20303;-77
2022/03/04 05:09:21;;;;;;;30.33;15.47;;;3.30;99.90;;;;;;5021581;28;20640;-76
2022/03/04 05:12:11;;;;;;;35.23;16.33;;;3.30;99.90;;;;;;5023209;28;20647;-75
2022/03/04 05:15:00;;;;;;;28.97;16.57;;;3.40;99.90;;;;;;5027622;28;21022;-78
2022/03/04 05:17:51;;;;;;;34.53;17.07;;;3.50;99.90;;;;;;5038996;28;20233;-79
2022/03/04 05:20:39;;;;;;;33.70;17.47;;;3.40;99.90;;;;;;5041759;28;20233;-72
2022/03/04 05:26:37;;;;;;;32.77;14.43;;;3.40;99.90;;;;;;5024032;28;20235;-71
2022/03/04 05:29:28;;;;;;;32.50;15.70;;;3.30;99.90;;;;;;5041727;28;20577;-72
2022/03/04 05:32:20;;;;;;;31.77;15.93;;;3.30;99.90;;;;;;5029750;28;20222;-73
2022/03/04 05:35:09;;;;;;;28.10;16.27;;;3.40;99.90;;;;;;5027775;28;20218;-72
2022/03/04 05:37:59;;;;;;;36.53;17.63;;;3.30;99.90;;;;;;5045036;28;20388;-72
2022/03/04 05:40:48;;;;;;;34.43;17.03;;;3.40;99.90;;;;;;5027970;28;20230;-72
2022/03/04 05:43:37;;;;;;;28.20;16.20;;;3.20;99.90;;;;;;5043015;28;20225;-72
2022/03/04 05:46:27;;;;;;;32.93;17.17;;;3.30;99.90;;;;;;5029573;28;20213;-73
2022/03/04 05:49:16;;;;;;;37.23;16.77;;;3.20;99.90;;;;;;5028170;28;20324;-72
2022/03/04 05:52:05;;;;;;;39.63;16.87;;;3.20;99.90;;;;;;5029932;28;20311;-72
2022/03/04 05:54:54;;;;;;;34.07;17.27;;;3.30;99.90;;;;;;5026884;28;20339;-73
2022/03/04 05:57:42;;;;;;;38.87;17.23;;;3.30;99.90;;;;;;5039571;28;20232;-75
2022/03/04 06:00:31;;;;;;;41.23;17.37;;;3.40;99.90;;;;;;5026264;28;20509;-73
2022/03/04 06:03:22;;;;;;;34.57;17.80;;;3.20;99.90;;;;;;5037955;28;20306;-75
2022/03/04 06:06:16;;;;;;;35.57;17.60;;;3.30;99.90;;;;;;5030157;28;20231;-73
2022/03/04 06:09:04;;;;;;;32.20;16.37;;;3.20;99.90;;;;;;5028640;28;20688;-74
2022/03/04 06:11:53;;;;;;;32.30;16.33;;;3.20;99.90;;;;;;5029562;28;20225;-73
2022/03/04 06:14:42;;;;;;;33.10;18.43;;;3.30;99.90;;;;;;5044577;28;20247;-74
2022/03/04 06:17:31;;;;;;;36.80;17.83;;;3.30;99.90;;;;;;5040860;28;20643;-71
2022/03/04 06:20:21;;;;;;;35.20;15.80;;;3.20;99.90;;;;;;5042983;28;20225;-72
2022/03/04 06:23:11;;;;;;;29.10;16.23;;;3.20;99.90;;;;;;5023738;28;20221;-73
2022/03/04 06:26:00;;;;;;;28.03;15.60;;;3.30;99.90;;;;;;5040921;28;20232;-72
2022/03/04 06:28:48;;;;;;;31.83;15.50;;;3.30;99.90;;;;;;5027604;28;20297;-71
2022/03/04 06:31:37;;;;;;;28.33;15.97;;;3.20;99.90;;;;;;5027536;28;20223;-74
2022/03/04 06:34:26;;;;;;;30.30;15.17;;;3.20;99.90;;;;;;5027127;28;20784;-73
2022/03/04 06:37:19;;;;;;;27.47;14.67;;;3.30;99.90;;;;;;5040243;28;20224;-72
2022/03/04 06:40:09;;;;;;;21.33;11.77;;;3.20;99.90;;;;;;5041424;28;20233;-74
2022/03/04 06:42:58;;;;;;;20.50;13.10;;;3.20;99.90;;;;;;5043079;28;20220;-72
2022/03/04 06:45:48;;;;;;;21.27;13.13;;;3.30;99.90;;;;;;5040787;28;20224;-71
2022/03/04 06:48:38;;;;;;;24.40;12.70;;;3.40;99.90;;;;;;5039985;28;21158;-71
2022/03/04 06:51:27;;;;;;;18.23;10.93;;;3.30;99.90;;;;;;5038860;28;20221;-71
2022/03/04 06:54:17;;;;;;;20.13;10.57;;;3.30;99.90;;;;;;5013654;28;20221;-73
2022/03/04 06:57:06;;;;;;;17.30;10.40;;;3.30;99.90;;;;;;5036645;28;20237;-73
2022/03/04 06:59:55;;;;;;;15.60;9.83;;;3.30;99.90;;;;;;5024767;28;20314;-72
2022/03/04 07:02:44;;;;;;;15.60;10.07;;;3.40;99.90;;;;;;5028264;28;20283;-73
2022/03/04 07:05:33;;;;;;;17.27;11.17;;;3.30;99.90;;;;;;5025842;28;20239;-72
2022/03/04 07:08:21;;;;;;;15.87;10.10;;;3.10;99.90;;;;;;5034962;28;20705;-73
2022/03/04 07:11:11;;;;;;;15.47;9.93;;;3.30;99.90;;;;;;5023590;28;20736;-72
2022/03/04 07:14:00;;;;;;;19.20;11.37;;;3.40;99.90;;;;;;5034873;28;20229;-72
2022/03/04 07:16:48;;;;;;;19.50;12.40;;;3.50;99.90;;;;;;5031221;28;20229;-72
2022/03/04 07:19:37;;;;;;;19.87;12.23;;;3.40;99.90;;;;;;5023519;28;20581;-73
2022/03/04 07:22:26;;;;;;;20.93;11.97;;;3.50;99.90;;;;;;5036645;28;21050;-72
2022/03/04 07:25:19;;;;;;;18.43;11.77;;;3.60;99.90;;;;;;5038913;28;20228;-73
2022/03/04 07:28:10;;;;;;;21.53;11.37;;;3.40;99.90;;;;;;5026511;28;20217;-74
2022/03/04 07:30:59;;;;;;;23.17;12.43;;;3.70;99.90;;;;;;5037108;28;20229;-73
2022/03/04 07:33:47;;;;;;;20.83;12.47;;;3.30;99.90;;;;;;5024367;28;20226;-72
2022/03/04 07:36:37;;;;;;;20.10;12.27;;;3.30;99.90;;;;;;5025398;28;20345;-73
2022/03/04 07:39:26;;;;;;;25.83;12.47;;;3.30;99.90;;;;;;5023983;28;20296;-73
2022/03/04 07:42:15;;;;;;;22.80;12.70;;;3.30;99.90;;;;;;5041032;28;20218;-73
2022/03/04 07:45:08;;;;;;;25.73;14.50;;;3.30;99.90;;;;;;5027433;28;20748;-71
2022/03/04 07:47:57;;;;;;;26.60;14.50;;;3.20;99.90;;;;;;5027576;28;20232;-71
2022/03/04 07:50:45;;;;;;;26.03;13.90;;;3.40;99.90;;;;;;5038805;28;20553;-73
2022/03/04 07:53:34;;;;;;;24.47;14.37;;;3.30;99.90;;;;;;5036765;28;20596;-73
2022/03/04 07:56:23;;;;;;;21.47;13.17;;;3.40;99.90;;;;;;5038132;28;20217;-73
2022/03/04 07:59:12;;;;;;;30.50;13.47;;;3.30;99.90;;;;;;5037964;28;20232;-73
2022/03/04 08:02:02;;;;;;;22.33;12.87;;;3.40;99.90;;;;;;5035634;28;20686;-75
2022/03/04 08:04:51;;;;;;;25.33;14.47;;;3.20;99.90;;;;;;5037915;28;20221;-74
2022/03/04 08:07:40;;;;;;;23.97;14.00;;;3.20;99.90;;;;;;5039814;28;20289;-77
2022/03/04 08:10:29;;;;;;;38.30;24.30;;;3.20;99.90;;;;;;5040754;28;20221;-75
2022/03/04 08:13:17;;;;;;;24.23;13.57;;;3.30;99.90;;;;;;5038708;28;20564;-76
2022/03/04 08:16:06;;;;;;;25.40;14.33;;;3.20;99.90;;;;;;5038083;28;20229;-77
2022/03/04 08:18:56;;;;;;;28.07;14.43;;;3.20;99.90;;;;;;5036485;28;20271;-76
2022/03/04 08:21:47;;;;;;;25.13;14.50;;;3.30;99.90;;;;;;5036512;28;20217;-74
2022/03/04 08:24:36;;;;;;;26.47;14.40;;;3.30;99.90;;;;;;5040470;28;20244;-76
2022/03/04 08:27:25;;;;;;;23.70;14.37;;;3.30;99.90;;;;;;5039494;28;20224;-76
2022/03/04 08:30:14;;;;;;;26.20;14.40;;;3.20;99.90;;;;;;5035718;28;20742;-75
2022/03/04 08:33:03;;;;;;;29.23;17.23;;;3.20;99.90;;;;;;5036798;28;20371;-77
2022/03/04 08:35:54;;;;;;;24.13;15.17;;;3.20;99.90;;;;;;5039914;28;20236;-77
2022/03/04 08:38:43;;;;;;;23.43;14.90;;;3.20;99.90;;;;;;5035363;28;20252;-76
2022/03/04 08:41:32;;;;;;;24.77;15.67;;;3.20;99.90;;;;;;5042275;28;20240;-75
2022/03/04 08:44:21;;;;;;;27.70;15.17;;;3.30;99.90;;;;;;5038118;28;20700;-79
2022/03/04 08:47:10;;;;;;;24.53;13.90;;;3.20;99.90;;;;;;5040800;28;20307;-81
2022/03/04 08:49:59;;;;;;;21.97;14.43;;;3.20;99.90;;;;;;5045245;28;20233;-87
2022/03/04 08:52:49;;;;;;;24.20;14.67;;;3.30;99.90;;;;;;5046926;28;20225;-86
2022/03/04 08:55:41;;;;;;;23.87;14.47;;;3.50;99.90;;;;;;5041255;28;20216;-80
2022/03/04 08:58:30;;;;;;;23.50;13.63;;;3.30;99.90;;;;;;5053379;28;20285;-82
2022/03/04 09:01:19;;;;;;;20.93;12.57;;;3.30;99.90;;;;;;5039370;28;20325;-80
2022/03/04 09:04:09;;;;;;;24.20;15.10;;;3.40;99.90;;;;;;5039764;28;20226;-80
2022/03/04 09:06:57;;;;;;;22.23;14.27;;;3.50;99.90;;;;;;5038432;28;20235;-80
2022/03/04 09:09:47;;;;;;;28.37;15.20;;;3.60;99.90;;;;;;5038527;28;20233;-81
2022/03/04 09:12:36;;;;;;;22.80;14.63;;;3.50;99.90;;;;;;5039902;28;20339;-81
2022/03/04 09:15:25;;;;;;;27.03;15.53;;;3.40;99.90;;;;;;5051453;28;20230;-82
2022/03/04 09:18:15;;;;;;;25.37;15.07;;;3.60;99.90;;;;;;5043324;28;20281;-81
2022/03/04 09:21:04;;;;;;;28.70;15.70;;;3.50;99.90;;;;;;5042841;28;20219;-84
2022/03/04 09:23:53;;;;;;;21.87;14.23;;;3.60;99.90;;;;;;5041737;28;20237;-84
2022/03/04 09:26:44;;;;;;;25.30;13.57;;;3.70;99.90;;;;;;5042958;28;20213;-82
2022/03/04 09:29:32;;;;;;;23.03;12.73;;;3.60;99.90;;;;;;5054339;28;20213;-84
2022/03/04 09:32:23;;;;;;;24.57;13.60;;;3.50;99.90;;;;;;5042693;28;20233;-84
2022/03/04 09:35:12;;;;;;;22.70;13.13;;;3.50;99.90;;;;;;5041779;28;21159;-82
2022/03/04 09:38:01;;;;;;;20.60;12.07;;;3.50;99.90;;;;;;5036707;28;20229;-81
2022/03/04 09:40:52;;;;;;;20.33;12.17;;;3.30;99.90;;;;;;5042914;28;20245;-84
2022/03/04 09:43:43;;;;;;;22.70;12.70;;;3.30;99.90;;;;;;5053489;28;20588;-83
2022/03/04 09:46:32;;;;;;;19.80;12.97;;;3.10;99.90;;;;;;5043329;28;20296;-80
2022/03/04 09:49:21;;;;;;;21.63;13.20;;;3.10;99.90;;;;;;5041787;28;20264;-82
2022/03/04 09:52:10;;;;;;;19.77;13.10;;;3.20;99.90;;;;;;5039694;28;20224;-83
2022/03/04 09:55:01;;;;;;;20.33;12.93;;;3.20;99.90;;;;;;5054539;28;20228;-82
2022/03/04 09:57:49;;;;;;;26.47;15.77;;;3.10;99.90;;;;;;5038614;28;20267;-83
2022/03/04 10:00:40;;;;;;;22.50;14.00;;;3.20;99.90;;;;;;5043402;28;20232;-83
2022/03/04 10:03:47;;;;;;;18.87;12.33;;;3.30;99.90;;;;;;5052639;28;20238;-82
2022/03/04 10:06:39;;;;;;;20.80;12.17;;;3.40;99.90;;;;;;5053575;28;20224;-80
2022/03/04 10:09:38;;;;;;;18.00;11.27;;;3.50;99.90;;;;;;5041136;28;20256;-82
2022/03/04 10:12:27;;;;;;;18.77;11.40;;;3.50;99.90;;;;;;5038887;28;20220;-83
2022/03/04 10:15:16;;;;;;;19.73;12.33;;;3.30;99.90;;;;;;5041914;28;20308;-80
2022/03/04 10:18:07;;;;;;;16.63;11.03;;;3.50;99.90;;;;;;5038268;28;20232;-82
2022/03/04 10:20:56;;;;;;;17.73;10.70;;;3.50;99.90;;;;;;5039633;28;20251;-82
2022/03/04 10:23:45;;;;;;;16.53;10.40;;;3.40;99.90;;;;;;5030703;28;20241;-80
2022/03/04 10:26:34;;;;;;;14.87;10.40;;;3.20;99.90;;;;;;5040617;28;20731;-81
2022/03/04 10:29:25;;;;;;;17.03;9.50;;;3.10;99.90;;;;;;5037730;28;20226;-83
2022/03/04 10:32:18;;;;;;;16.83;10.47;;;3.10;99.90;;;;;;5040794;28;20225;-79
2022/03/04 10:35:14;;;;;;;14.53;10.50;;;3.20;99.90;;;;;;5052751;28;20225;-78
2022/03/04 10:38:04;;;;;;;15.53;10.70;;;3.20;99.90;;;;;;5029165;28;20227;-80
2022/03/04 10:40:53;;;;;;;17.70;10.70;;;3.20;99.90;;;;;;5038698;28;20217;-76
2022/03/04 10:43:42;;;;;;;14.00;10.27;;;3.40;99.90;;;;;;5040098;28;20224;-77
2022/03/04 10:46:56;;;;;;;18.20;10.20;;;3.40;99.90;;;;;;5040671;28;20230;-76
2022/03/04 10:49:53;;;;;;;17.33;10.80;;;3.60;99.90;;;;;;5041597;28;20217;-78
2022/03/04 10:52:58;;;;;;;16.60;11.20;;;3.70;99.90;;;;;;5024580;28;20270;-78
2022/03/04 10:55:48;;;;;;;16.93;10.23;;;4.00;99.90;;;;;;5035587;28;20222;-77
2022/03/04 10:58:38;;;;;;;17.50;11.27;;;3.90;99.90;;;;;;5043294;28;20223;-78
2022/03/04 11:01:27;;;;;;;20.13;11.43;;;4.10;99.90;;;;;;5041903;28;20223;-78
2022/03/04 11:04:18;;;;;;;20.37;11.10;;;4.40;99.90;;;;;;5037018;28;21006;-78
2022/03/04 11:07:07;;;;;;;15.97;11.20;;;4.40;99.90;;;;;;5040617;28;20228;-78
2022/03/04 11:09:57;;;;;;;19.60;11.77;;;4.60;99.90;;;;;;5039307;28;20244;-78
2022/03/04 11:12:50;;;;;;;14.43;9.83;;;4.60;99.90;;;;;;5043194;28;20242;-78
2022/03/04 11:15:41;;;;;;;15.63;10.67;;;4.50;99.90;;;;;;5044092;28;20223;-79
2022/03/04 11:18:30;;;;;;;17.73;9.93;;;4.60;99.90;;;;;;5041787;28;20231;-77
2022/03/04 11:21:18;;;;;;;15.30;8.97;;;4.50;99.90;;;;;;5053873;28;20231;-80
2022/03/04 11:24:07;;;;;;;14.93;9.67;;;4.40;99.90;;;;;;5038710;28;20232;-76
2022/03/04 11:27:04;;;;;;;15.63;9.17;;;4.50;99.90;;;;;;5035301;28;20276;-75
2022/03/04 11:29:58;;;;;;;16.07;9.73;;;4.40;99.90;;;;;;5046872;28;20232;-76
2022/03/04 11:32:47;;;;;;;14.57;9.57;;;4.40;99.90;;;;;;5035993;28;20244;-73
2022/03/04 11:35:53;;;;;;;15.83;9.50;;;4.50;99.90;;;;;;5039010;28;21438;-79
2022/03/04 11:39:09;;;;;;;13.07;8.93;;;4.70;99.90;;;;;;5031781;28;20378;-77
2022/03/04 11:42:10;;;;;;;12.63;9.27;;;4.90;99.90;;;;;;5026280;28;20870;-78
2022/03/04 11:45:00;;;;;;;15.63;9.10;;;5.10;99.90;;;;;;5052473;28;20247;-77
2022/03/04 11:47:51;;;;;;;12.57;8.50;;;5.40;99.90;;;;;;5038790;28;21584;-78
2022/03/04 11:50:52;;;;;;;12.83;8.73;;;5.50;99.90;;;;;;5042432;28;20250;-76
2022/03/04 11:53:40;;;;;;;12.47;8.73;;;5.10;99.90;;;;;;5048431;28;20311;-78
2022/03/04 11:56:29;;;;;;;16.10;9.87;;;4.90;99.90;;;;;;5037488;28;20216;-77
2022/03/04 11:59:22;;;;;;;16.13;9.27;;;4.90;99.90;;;;;;5029353;28;20537;-77
2022/03/04 12:02:19;;;;;;;14.00;9.03;;;5.10;99.90;;;;;;5048322;28;20224;-77
2022/03/04 12:05:25;;;;;;;12.27;8.03;;;5.30;99.90;;;;;;5039944;28;20217;-79
2022/03/04 12:08:15;;;;;;;12.47;8.20;;;5.30;99.90;;;;;;5040793;28;20233;-77
2022/03/04 12:11:03;;;;;;;11.97;7.80;;;5.30;99.90;;;;;;5037915;28;20238;-78
2022/03/04 12:14:07;;;;;;;12.93;8.70;;;5.10;99.90;;;;;;5035717;28;20228;-77
2022/03/04 12:16:58;;;;;;;14.10;8.97;;;4.90;99.90;;;;;;5036421;28;20549;-76
2022/03/04 12:19:49;;;;;;;13.53;8.70;;;5.00;99.90;;;;;;5038670;28;20223;-77
2022/03/04 12:22:46;;;;;;;15.00;9.90;;;5.00;99.90;;;;;;5036341;28;20232;-77
2022/03/04 12:26:10;;;;;;;13.27;9.33;;;4.80;99.90;;;;;;5039189;28;20300;-76
2022/03/04 12:29:04;;;;;;;16.60;10.20;;;4.80;99.90;;;;;;5039349;28;20227;-75
2022/03/04 12:31:56;;;;;;;15.43;9.77;;;4.80;99.90;;;;;;5036278;28;20244;-75
2022/03/04 12:34:52;;;;;;;21.17;10.80;;;5.00;99.90;;;;;;5035957;28;20220;-76
2022/03/04 12:37:41;;;;;;;16.47;9.87;;;5.20;99.90;;;;;;5035302;28;20775;-82
2022/03/04 12:40:30;;;;;;;15.77;9.87;;;5.20;99.90;;;;;;5054773;28;20632;-77
2022/03/04 12:43:18;;;;;;;15.47;8.60;;;5.30;99.90;;;;;;5036354;28;20232;-78
2022/03/04 12:46:08;;;;;;;14.13;8.57;;;5.20;99.90;;;;;;5034895;28;20228;-77
2022/03/04 12:48:57;;;;;;;13.30;8.00;;;5.20;99.90;;;;;;5039190;28;20231;-79
2022/03/04 12:51:47;;;;;;;13.20;8.80;;;5.10;99.90;;;;;;5034502;28;20227;-77
2022/03/04 12:54:36;;;;;;;12.93;7.43;;;4.90;99.90;;;;;;5052294;28;20229;-78
2022/03/04 12:57:27;;;;;;;15.30;8.50;;;4.80;99.90;;;;;;5036436;28;20307;-79
2022/03/04 13:00:15;;;;;;;14.07;8.00;;;4.80;99.90;;;;;;5040047;28;20281;-78
2022/03/04 13:03:19;;;;;;;14.87;8.30;;;4.70;99.90;;;;;;5040232;28;20236;-79
2022/03/04 13:06:07;;;;;;;15.93;8.67;;;4.70;99.90;;;;;;5052241;28;20348;-78
2022/03/04 13:08:59;;;;;;;15.53;9.03;;;4.80;99.90;;;;;;5040090;28;20230;-77
2022/03/04 13:11:48;;;;;;;15.73;9.70;;;4.70;99.90;;;;;;5035925;28;20215;-77
2022/03/04 13:14:37;;;;;;;21.20;10.27;;;4.90;99.90;;;;;;5039431;28;20247;-78
2022/03/04 13:17:26;;;;;;;16.50;9.70;;;4.80;99.90;;;;;;5038973;28;20233;-77
2022/03/04 13:20:15;;;;;;;18.83;10.47;;;4.90;99.90;;;;;;5037610;28;20227;-77
2022/03/04 13:23:08;;;;;;;18.10;10.50;;;4.80;99.90;;;;;;5035191;28;20221;-79
2022/03/04 13:26:09;;;;;;;19.20;10.73;;;4.90;99.90;;;;;;5031027;28;20316;-79
2022/03/04 13:29:00;;;;;;;20.63;10.70;;;4.90;99.90;;;;;;5025009;28;20216;-78
2022/03/04 13:31:51;;;;;;;18.13;11.00;;;4.80;99.90;;;;;;5042774;28;20742;-78
2022/03/04 13:34:42;;;;;;;19.27;11.23;;;4.90;99.90;;;;;;5040392;28;20711;-80
2022/03/04 13:37:39;;;;;;;19.87;10.43;;;5.00;99.90;;;;;;5044685;28;20343;-78
2022/03/04 13:40:32;;;;;;;19.03;11.70;;;4.90;99.90;;;;;;5042066;28;20238;-77
2022/03/04 13:43:32;;;;;;;20.97;12.13;;;5.00;99.90;;;;;;5043313;28;20215;-79
2022/03/04 13:46:22;;;;;;;20.67;11.33;;;5.00;99.90;;;;;;5039932;28;20718;-78
2022/03/04 13:49:11;;;;;;;23.30;12.63;;;4.90;99.90;;;;;;5055257;28;20220;-80
2022/03/04 13:52:01;;;;;;;26.83;12.43;;;4.90;99.90;;;;;;5041601;28;20225;-75
2022/03/04 13:54:51;;;;;;;22.90;12.13;;;4.80;99.90;;;;;;5041894;28;20224;-77
2022/03/04 13:57:40;;;;;;;22.87;12.63;;;4.90;99.90;;;;;;5044923;28;20236;-78
2022/03/04 14:00:35;;;;;;;20.40;12.47;;;4.90;99.90;;;;;;5039014;28;20223;-78
2022/03/04 14:03:26;;;;;;;23.07;11.90;;;4.90;99.90;;;;;;5052232;28;20225;-77
2022/03/04 14:06:17;;;;;;;23.10;12.40;;;4.90;99.90;;;;;;5039525;28;20301;-78
2022/03/04 14:09:13;;;;;;;23.60;13.17;;;4.90;99.90;;;;;;5042728;28;20233;-77
2022/03/04 14:12:02;;;;;;;25.57;12.93;;;4.90;99.90;;;;;;5041093;28;20240;-78
2022/03/04 14:14:50;;;;;;;21.53;12.73;;;5.00;99.90;;;;;;5042023;28;20311;-79
2022/03/04 14:17:52;;;;;;;23.37;12.73;;;5.10;99.90;;;;;;5038072;28;20221;-79
2022/03/04 14:20:42;;;;;;;21.37;12.80;;;5.00;99.90;;;;;;5042698;28;20310;-77
2022/03/04 14:23:32;;;;;;;22.77;12.07;;;5.00;99.90;;;;;;5043064;28;21014;-78
2022/03/04 14:26:20;;;;;;;20.83;12.20;;;4.90;99.90;;;;;;5043721;28;20728;-76
2022/03/04 14:29:13;;;;;;;19.03;11.70;;;4.90;99.90;;;;;;5040741;28;20950;-76
2022/03/04 14:32:02;;;;;;;21.37;12.67;;;4.90;99.90;;;;;;5027084;28;20244;-77
2022/03/04 14:34:57;;;;;;;23.47;13.33;;;4.80;99.90;;;;;;5040304;28;20217;-77
2022/03/04 14:37:47;;;;;;;21.67;12.17;;;4.90;99.90;;;;;;5040127;28;20222;-76
2022/03/04 14:40:36;;;;;;;21.93;12.90;;;5.00;99.90;;;;;;5040120;28;20707;-76